Time;durP1;ratioP1;P1;durP2;ratioP2;P2;SDS_P1;SDS_P2;PMS_P1;PMS_P2;Temp;Humidity;BMP_temperature;BMP_pressure;BME280_temperature;BME280_humidity;BME280_pressure;Samples;Min_cycle;Max_cycle;Signal;HPM_P1;HPM_P2
2022/10/01 00:01:29;;;;;;;10.00;8.97;;;9.60;92.20;;;;;;5009219;28;20483;-70
2022/10/01 00:03:57;;;;;;;10.27;9.10;;;9.60;99.90;;;;;;5008904;28;20500;-70
2022/10/01 00:06:26;;;;;;;11.23;9.80;;;9.60;99.90;;;;;;4993328;28;20629;-70
2022/10/01 00:08:54;;;;;;;13.07;9.17;;;9.50;14.10;;;;;;4992978;28;20401;-70
2022/10/01 00:11:25;;;;;;;11.67;9.53;;;9.50;99.90;;;;;;4993553;28;20404;-69
2022/10/01 00:13:55;;;;;;;12.73;9.37;;;9.40;99.90;;;;;;5008012;28;20507;-69
2022/10/01 00:16:25;;;;;;;11.27;8.80;;;9.30;1.00;;;;;;4993335;28;20807;-69
2022/10/01 00:18:55;;;;;;;11.80;8.93;;;9.30;1.00;;;;;;4992699;28;20424;-69
2022/10/01 00:21:25;;;;;;;14.83;9.30;;;9.40;1.00;;;;;;4992804;28;20499;-69
2022/10/01 00:23:55;;;;;;;10.03;8.57;;;9.40;1.00;;;;;;4992832;28;20388;-69
2022/10/01 00:26:27;;;;;;;9.07;8.00;;;9.40;1.00;;;;;;4992661;28;20598;-69
2022/10/01 00:28:59;;;;;;;13.07;10.40;;;9.30;99.90;;;;;;4992945;28;20901;-69
2022/10/01 00:31:28;;;;;;;9.48;8.52;;;9.30;1.00;;;;;;4993417;28;20395;-69
2022/10/01 00:34:01;;;;;;;12.30;9.37;;;9.30;1.00;;;;;;4991494;28;20201;-70
2022/10/01 00:36:30;;;;;;;11.57;8.67;;;9.30;57.10;;;;;;4992330;28;20416;-70
2022/10/01 00:38:59;;;;;;;12.97;8.07;;;9.40;1.00;;;;;;4992788;28;20916;-68
2022/10/01 00:41:30;;;;;;;12.35;11.00;;;9.40;1.00;;;;;;4992262;28;20951;-70
2022/10/01 00:44:02;;;;;;;12.50;10.43;;;9.40;1.00;;;;;;4992505;28;20266;-69
2022/10/01 00:46:39;;;;;;;10.17;8.60;;;9.30;99.90;;;;;;4992271;28;20642;-69
2022/10/01 00:49:11;;;;;;;10.32;8.60;;;9.20;99.90;;;;;;4992722;28;20400;-69
2022/10/01 00:51:44;;;;;;;9.88;8.88;;;9.30;1.00;;;;;;4992404;28;20266;-69
2022/10/01 00:54:16;;;;;;;13.70;8.83;;;9.20;1.00;;;;;;4992935;28;20208;-70
2022/10/01 00:56:45;;;;;;;12.48;8.75;;;9.30;99.90;;;;;;4992598;28;20488;-70
2022/10/01 00:59:16;;;;;;;9.90;8.90;;;9.30;99.90;;;;;;4993318;28;20743;-70
2022/10/01 01:01:44;;;;;;;10.68;9.63;;;9.30;1.00;;;;;;4992906;28;20423;-70
2022/10/01 01:04:16;;;;;;;12.57;10.07;;;9.30;99.90;;;;;;4991969;28;20261;-70
2022/10/01 01:06:46;;;;;;;14.70;9.80;;;9.20;99.90;;;;;;4991810;28;20171;-70
2022/10/01 01:09:15;;;;;;;11.83;10.17;;;9.20;99.90;;;;;;4991815;28;20396;-70
2022/10/01 01:11:49;;;;;;;10.32;7.90;;;9.20;1.00;;;;;;4991454;28;20480;-71
2022/10/01 01:14:28;;;;;;;12.73;8.63;;;9.30;99.90;;;;;;4991697;28;20206;-70
2022/10/01 01:16:59;;;;;;;10.93;9.83;;;9.30;1.00;;;;;;4988571;28;20917;-70
2022/10/01 01:19:43;;;;;;;12.45;9.65;;;9.20;99.90;;;;;;4978642;28;20461;-71
2022/10/01 01:22:14;;;;;;;10.05;8.75;;;9.20;99.90;;;;;;4987255;28;20712;-70
2022/10/01 01:24:49;;;;;;;9.05;8.15;;;9.20;99.90;;;;;;4979210;28;20578;-70
2022/10/01 01:27:34;;;;;;;10.38;8.60;;;9.20;1.00;;;;;;4991517;28;20273;-70
2022/10/01 01:30:07;;;;;;;11.00;8.83;;;9.20;99.90;;;;;;4991635;28;20660;-70
2022/10/01 01:32:46;;;;;;;11.43;9.10;;;9.30;99.90;;;;;;4991988;28;20772;-70
2022/10/01 01:35:21;;;;;;;12.15;8.60;;;9.40;99.90;;;;;;4991435;28;20724;-70
2022/10/01 01:37:55;;;;;;;13.77;9.10;;;9.30;1.00;;;;;;4991598;28;20744;-70
2022/10/01 01:40:25;;;;;;;9.43;8.52;;;9.20;99.90;;;;;;4980896;28;20209;-70
2022/10/01 01:42:56;;;;;;;12.15;8.57;;;9.20;99.90;;;;;;4986960;28;20287;-70
2022/10/01 01:45:29;;;;;;;11.52;10.35;;;9.20;1.00;;;;;;5009905;28;20258;-70
2022/10/01 01:48:01;;;;;;;15.73;10.35;;;9.30;1.00;;;;;;4999987;28;20194;-70
2022/10/01 01:50:34;;;;;;;10.45;8.90;;;9.20;99.90;;;;;;4999080;28;20199;-70
2022/10/01 01:53:02;;;;;;;18.20;10.23;;;9.20;1.00;;;;;;4997963;28;20202;-71
2022/10/01 01:55:33;;;;;;;17.10;10.60;;;9.20;99.90;;;;;;4997298;28;20305;-70
2022/10/01 01:58:03;;;;;;;13.13;9.38;;;9.10;99.90;;;;;;5000054;28;20453;-71
2022/10/01 02:00:33;;;;;;;11.35;8.93;;;9.20;1.00;;;;;;5000807;28;20237;-70
2022/10/01 02:03:02;;;;;;;14.13;10.40;;;9.10;99.90;;;;;;4998925;28;20226;-69
2022/10/01 02:05:42;;;;;;;14.35;10.35;;;9.10;1.00;;;;;;4995870;28;20222;-70
2022/10/01 02:08:26;;;;;;;11.32;10.10;;;9.10;99.90;;;;;;4977823;28;20296;-70
2022/10/01 02:11:08;;;;;;;11.40;10.18;;;9.10;99.90;;;;;;4991925;28;20195;-70
2022/10/01 02:13:49;;;;;;;12.98;8.75;;;9.20;99.90;;;;;;4995030;28;20277;-71
2022/10/01 02:16:29;;;;;;;13.93;9.70;;;9.10;99.90;;;;;;4994031;28;20285;-70
2022/10/01 02:19:05;;;;;;;11.68;9.05;;;9.00;99.90;;;;;;4987247;28;20499;-71
2022/10/01 02:21:40;;;;;;;11.25;10.07;;;9.00;99.90;;;;;;4974643;28;20293;-71
2022/10/01 02:24:18;;;;;;;12.80;11.27;;;9.10;99.90;;;;;;4992870;28;20190;-71
2022/10/01 02:26:50;;;;;;;14.05;10.55;;;9.10;99.90;;;;;;4992682;28;20218;-72
2022/10/01 02:29:21;;;;;;;13.23;10.97;;;9.10;99.90;;;;;;4986988;28;20204;-70
2022/10/01 02:31:54;;;;;;;14.40;10.75;;;9.00;99.90;;;;;;4981690;28;20438;-70
2022/10/01 02:34:28;;;;;;;14.65;11.15;;;8.90;99.90;;;;;;4990200;28;20222;-69
2022/10/01 02:37:00;;;;;;;16.75;12.95;;;8.90;99.90;;;;;;4990238;28;20223;-71
2022/10/01 02:39:31;;;;;;;14.15;11.73;;;8.90;99.90;;;;;;4990511;28;20191;-70
2022/10/01 02:42:00;;;;;;;14.63;10.50;;;8.80;99.90;;;;;;4987006;28;20792;-71
2022/10/01 02:44:36;;;;;;;13.63;9.15;;;8.90;99.90;;;;;;4983644;28;20523;-70
2022/10/01 02:47:13;;;;;;;13.02;10.80;;;8.80;99.90;;;;;;4990028;28;20249;-71
2022/10/01 02:49:41;;;;;;;13.90;11.50;;;8.70;99.90;;;;;;4990256;28;20564;-71
2022/10/01 02:52:16;;;;;;;13.52;10.27;;;8.70;99.90;;;;;;4988725;28;20214;-72
2022/10/01 02:54:50;;;;;;;11.77;10.07;;;8.70;99.90;;;;;;4990178;28;20211;-71
2022/10/01 02:57:27;;;;;;;12.40;11.20;;;8.70;99.90;;;;;;4990012;28;20289;-70
2022/10/01 02:59:58;;;;;;;11.90;9.43;;;8.70;99.90;;;;;;4990558;28;20729;-70
2022/10/01 03:02:30;;;;;;;18.02;11.77;;;8.80;99.90;;;;;;4989703;28;20662;-70
2022/10/01 03:04:59;;;;;;;12.38;10.45;;;8.80;99.90;;;;;;4989912;28;20214;-70
2022/10/01 03:07:30;;;;;;;11.75;10.55;;;8.70;99.90;;;;;;4989913;28;20552;-71
2022/10/01 03:09:59;;;;;;;11.05;8.82;;;8.70;99.90;;;;;;4989778;28;20278;-71
2022/10/01 03:12:27;;;;;;;11.90;10.68;;;8.60;99.90;;;;;;4988474;28;20202;-71
2022/10/01 03:14:56;;;;;;;12.10;10.80;;;8.70;99.90;;;;;;4983071;28;20704;-71
2022/10/01 03:17:25;;;;;;;15.73;11.10;;;8.60;99.90;;;;;;4989619;28;20218;-71
2022/10/01 03:19:55;;;;;;;13.27;9.80;;;8.70;99.90;;;;;;4989645;28;20668;-71
2022/10/01 03:22:24;;;;;;;14.82;9.32;;;8.70;99.90;;;;;;4989534;28;20542;-70
2022/10/01 03:24:53;;;;;;;12.07;9.82;;;8.70;99.90;;;;;;4989765;28;20249;-71
2022/10/01 03:27:22;;;;;;;10.60;9.50;;;8.70;99.90;;;;;;4989794;28;20680;-71
2022/10/01 03:29:51;;;;;;;10.52;9.38;;;8.80;99.90;;;;;;4990017;28;20357;-69
2022/10/01 03:32:20;;;;;;;14.07;10.27;;;8.90;99.90;;;;;;4990551;28;20467;-70
2022/10/01 03:34:49;;;;;;;12.65;10.20;;;8.90;99.90;;;;;;4990141;28;20628;-71
2022/10/01 03:37:19;;;;;;;12.05;9.40;;;8.90;99.90;;;;;;4989947;28;20226;-70
2022/10/01 03:39:47;;;;;;;11.75;9.95;;;9.00;99.90;;;;;;5005323;28;20230;-71
2022/10/01 03:42:16;;;;;;;11.50;10.20;;;8.90;99.90;;;;;;4993024;28;20561;-71
2022/10/01 03:44:45;;;;;;;12.20;9.52;;;8.90;99.90;;;;;;4993520;28;20219;-71
2022/10/01 03:47:14;;;;;;;12.10;10.00;;;8.90;99.90;;;;;;4993958;28;20202;-70
2022/10/01 03:49:43;;;;;;;10.27;8.85;;;8.80;99.90;;;;;;4991022;28;20194;-70
2022/10/01 03:52:11;;;;;;;10.60;8.88;;;8.80;99.90;;;;;;4993605;28;20222;-71
2022/10/01 03:54:41;;;;;;;11.13;8.07;;;8.80;99.90;;;;;;4992200;28;20704;-70
2022/10/01 03:57:10;;;;;;;11.80;9.90;;;8.80;99.90;;;;;;4991769;28;20249;-70
2022/10/01 03:59:38;;;;;;;12.93;8.20;;;8.80;99.90;;;;;;4993653;28;20199;-70
2022/10/01 04:02:07;;;;;;;12.68;9.63;;;8.80;99.90;;;;;;4993716;28;20203;-72
2022/10/01 04:04:36;;;;;;;11.27;9.90;;;8.90;99.90;;;;;;4993466;28;20221;-70
2022/10/01 04:07:04;;;;;;;11.38;9.07;;;8.90;99.90;;;;;;4993489;28;20194;-70
2022/10/01 04:09:33;;;;;;;9.90;8.43;;;9.00;99.90;;;;;;4994069;28;20198;-70
2022/10/01 04:12:03;;;;;;;13.80;11.40;;;8.90;99.90;;;;;;4994311;28;20274;-70
2022/10/01 04:14:32;;;;;;;10.35;9.35;;;8.90;99.90;;;;;;4994481;28;20218;-69
2022/10/01 04:17:01;;;;;;;10.15;9.15;;;8.90;99.90;;;;;;4994939;28;20198;-69
2022/10/01 04:19:29;;;;;;;9.18;7.90;;;8.90;99.90;;;;;;4993584;28;20233;-70
2022/10/01 04:21:58;;;;;;;13.38;9.20;;;8.80;99.90;;;;;;4992953;28;20281;-71
2022/10/01 04:24:27;;;;;;;10.60;8.02;;;8.90;99.90;;;;;;4993327;28;20591;-70
2022/10/01 04:26:55;;;;;;;13.02;9.80;;;8.80;99.90;;;;;;4991542;28;20306;-71
2022/10/01 04:29:25;;;;;;;11.02;6.78;;;8.80;99.90;;;;;;4993001;28;20662;-70
2022/10/01 04:31:54;;;;;;;13.82;9.35;;;8.90;99.90;;;;;;4993211;28;20191;-69
2022/10/01 04:34:51;;;;;;;10.43;9.32;;;8.80;99.90;;;;;;4992743;28;20218;-71
2022/10/01 04:37:12;;;;;;;12.88;9.00;;;8.90;99.90;;;;;;4992650;28;20205;-70
2022/10/01 04:39:40;;;;;;;16.45;8.60;;;8.90;99.90;;;;;;5007862;28;20568;-70
2022/10/01 04:42:09;;;;;;;9.48;8.20;;;8.80;99.90;;;;;;4991253;28;20214;-70
2022/10/01 04:44:39;;;;;;;10.75;8.13;;;8.80;99.90;;;;;;4985931;28;20223;-70
2022/10/01 04:47:08;;;;;;;12.77;9.52;;;8.80;99.90;;;;;;4993361;28;20577;-70
2022/10/01 04:49:37;;;;;;;9.10;7.82;;;8.80;99.90;;;;;;4993288;28;20194;-70
2022/10/01 04:52:06;;;;;;;11.82;7.57;;;8.70;99.90;;;;;;4992556;28;20262;-71
2022/10/01 04:54:35;;;;;;;10.45;8.23;;;8.70;99.90;;;;;;4991881;28;20215;-70
2022/10/01 04:57:06;;;;;;;9.18;7.30;;;8.70;99.90;;;;;;4993586;28;20249;-71
2022/10/01 04:59:35;;;;;;;11.93;7.68;;;8.80;99.90;;;;;;4988258;28;20284;-70
2022/10/01 05:02:05;;;;;;;8.65;7.38;;;8.80;99.90;;;;;;4993375;28;20202;-70
2022/10/01 05:04:33;;;;;;;11.15;8.43;;;8.80;99.90;;;;;;4993549;28;20229;-69
2022/10/01 05:07:02;;;;;;;14.98;7.97;;;8.80;99.90;;;;;;4995665;28;20191;-70
2022/10/01 05:09:31;;;;;;;10.75;8.32;;;8.90;99.90;;;;;;4996646;28;20729;-70
2022/10/01 05:12:00;;;;;;;13.20;8.90;;;8.90;99.90;;;;;;4995232;28;20219;-68
2022/10/01 05:14:29;;;;;;;11.18;8.60;;;8.90;99.90;;;;;;4978287;28;20612;-69
2022/10/01 05:16:57;;;;;;;13.77;8.95;;;8.90;99.90;;;;;;4979158;28;20611;-68
2022/10/01 05:19:29;;;;;;;9.80;8.07;;;9.00;99.90;;;;;;4993100;28;20198;-69
2022/10/01 05:21:58;;;;;;;10.20;8.30;;;9.00;99.90;;;;;;4993017;28;20225;-70
2022/10/01 05:24:27;;;;;;;10.80;8.77;;;8.90;99.90;;;;;;4992876;28;20281;-69
2022/10/01 05:26:56;;;;;;;9.98;7.90;;;8.90;99.90;;;;;;4985388;28;20285;-70
2022/10/01 05:29:25;;;;;;;13.63;7.43;;;8.90;99.90;;;;;;4993035;28;20277;-70
2022/10/01 05:31:54;;;;;;;8.48;7.63;;;8.90;99.90;;;;;;5007707;28;20194;-69
2022/10/01 05:34:22;;;;;;;7.88;6.03;;;9.00;99.90;;;;;;4991621;28;20202;-70
2022/10/01 05:36:52;;;;;;;12.73;8.07;;;8.90;99.90;;;;;;4991788;28;20182;-70
2022/10/01 05:39:21;;;;;;;11.38;7.90;;;8.90;99.90;;;;;;4991793;28;20189;-69
2022/10/01 05:41:49;;;;;;;8.40;7.03;;;8.90;99.90;;;;;;4991753;28;20206;-70
2022/10/01 05:44:18;;;;;;;8.43;7.63;;;9.00;99.90;;;;;;5006608;28;20191;-70
2022/10/01 05:46:47;;;;;;;10.50;7.35;;;9.10;99.90;;;;;;4992027;28;20636;-69
2022/10/01 05:49:16;;;;;;;10.57;6.97;;;9.10;99.90;;;;;;4991986;28;20191;-69
2022/10/01 05:51:45;;;;;;;9.63;8.15;;;9.20;99.90;;;;;;4992753;28;20263;-69
2022/10/01 05:54:18;;;;;;;19.55;7.60;;;9.10;99.90;;;;;;5007671;28;20194;-70
2022/10/01 05:56:47;;;;;;;7.95;7.15;;;9.10;99.90;;;;;;4991205;28;20294;-69
2022/10/01 05:59:15;;;;;;;8.95;7.00;;;9.30;99.90;;;;;;5020560;22;20253;-72
2022/10/01 06:01:45;;;;;;;8.65;6.18;;;9.30;99.90;;;;;;5013156;28;20756;-73
2022/10/01 06:04:14;;;;;;;6.97;6.28;;;9.40;99.90;;;;;;5006567;28;20561;-73
2022/10/01 06:06:42;;;;;;;9.60;6.40;;;9.40;99.90;;;;;;5013496;28;20200;-71
2022/10/01 06:09:11;;;;;;;11.18;6.85;;;9.50;99.90;;;;;;5013845;28;20198;-72
2022/10/01 06:11:41;;;;;;;6.93;6.22;;;9.50;99.90;;;;;;5013897;23;20278;-72
2022/10/01 06:14:10;;;;;;;11.55;6.82;;;9.60;99.90;;;;;;4992583;28;20814;-68
2022/10/01 06:16:38;;;;;;;15.67;7.20;;;9.70;99.90;;;;;;4980193;28;20194;-70
2022/10/01 06:19:07;;;;;;;7.23;6.23;;;9.80;99.90;;;;;;4999678;28;20448;-71
2022/10/01 06:21:36;;;;;;;9.20;5.37;;;9.80;99.90;;;;;;4993297;28;20968;-70
2022/10/01 06:24:05;;;;;;;8.27;6.80;;;9.90;99.90;;;;;;4992229;28;20492;-71
2022/10/01 06:26:34;;;;;;;7.53;6.65;;;9.90;99.90;;;;;;4989952;28;20430;-71
2022/10/01 06:29:04;;;;;;;12.50;6.60;;;10.00;99.90;;;;;;4991778;28;20218;-72
2022/10/01 06:31:32;;;;;;;8.57;7.47;;;10.00;99.90;;;;;;4992022;28;20200;-72
2022/10/01 06:34:01;;;;;;;8.00;6.73;;;10.10;99.90;;;;;;4991100;28;20484;-70
2022/10/01 06:36:30;;;;;;;9.80;6.07;;;10.10;99.90;;;;;;4991372;28;20437;-69
2022/10/01 06:38:58;;;;;;;8.00;6.00;;;10.10;1.00;;;;;;4991213;28;20438;-69
2022/10/01 06:41:27;;;;;;;9.77;7.63;;;10.20;99.90;;;;;;4990093;28;20434;-71
2022/10/01 06:43:56;;;;;;;7.20;6.07;;;10.30;99.90;;;;;;4988368;28;20476;-69
2022/10/01 06:46:27;;;;;;;10.37;6.93;;;10.20;99.90;;;;;;4988803;28;21006;-71
2022/10/01 06:48:56;;;;;;;11.32;7.35;;;10.20;99.90;;;;;;4994673;28;21015;-71
2022/10/01 06:54:07;;;;;;;7.90;7.10;;;10.40;99.90;;;;;;4990375;28;20455;-70
2022/10/01 06:56:36;;;;;;;9.40;6.60;;;10.40;99.90;;;;;;4991315;28;20422;-70
2022/10/01 06:59:04;;;;;;;8.87;6.23;;;10.30;99.90;;;;;;4990875;28;20449;-71
2022/10/01 07:01:35;;;;;;;9.03;7.03;;;10.30;99.90;;;;;;4991273;28;20530;-72
2022/10/01 07:04:04;;;;;;;10.90;7.10;;;10.30;99.90;;;;;;4991424;28;20436;-70
2022/10/01 07:06:33;;;;;;;11.53;6.50;;;10.40;99.90;;;;;;4982427;28;20950;-71
2022/10/01 07:09:01;;;;;;;9.07;6.53;;;10.40;99.90;;;;;;4990642;28;20437;-69
2022/10/01 07:11:30;;;;;;;9.40;6.97;;;10.50;99.90;;;;;;4990566;28;20933;-70
2022/10/01 07:14:00;;;;;;;9.60;6.93;;;10.50;99.90;;;;;;4990010;28;20907;-72
2022/10/01 07:16:29;;;;;;;10.47;6.87;;;10.60;99.90;;;;;;5005523;28;20504;-70
2022/10/01 07:18:59;;;;;;;9.50;6.50;;;10.60;99.90;;;;;;4990821;28;20433;-73
2022/10/01 07:21:27;;;;;;;10.77;7.30;;;10.50;99.90;;;;;;4990529;28;20520;-71
2022/10/01 07:23:56;;;;;;;7.60;6.30;;;10.50;99.90;;;;;;4990842;28;20462;-69
2022/10/01 07:26:24;;;;;;;8.37;6.50;;;10.60;99.90;;;;;;4979976;28;20431;-69
2022/10/01 07:28:54;;;;;;;8.83;6.70;;;10.70;99.90;;;;;;4989063;28;20422;-70
2022/10/01 07:31:23;;;;;;;9.07;6.30;;;10.70;99.90;;;;;;4978517;28;20415;-70
2022/10/01 07:33:58;;;;;;;10.40;7.90;;;10.70;99.90;;;;;;4990870;28;20413;-68
2022/10/01 07:36:26;;;;;;;8.63;7.37;;;10.80;99.90;;;;;;4972369;28;20815;-70
2022/10/01 07:38:55;;;;;;;8.37;7.53;;;10.80;99.90;;;;;;4986803;28;20448;-71
2022/10/01 07:41:24;;;;;;;11.30;6.67;;;11.00;99.90;;;;;;4990466;28;20444;-70
2022/10/01 07:43:52;;;;;;;9.10;7.13;;;11.10;99.90;;;;;;4990611;28;20433;-69
2022/10/01 07:46:21;;;;;;;7.67;6.53;;;11.20;99.90;;;;;;4989770;28;20463;-72
2022/10/01 07:48:50;;;;;;;8.40;6.20;;;11.30;99.90;;;;;;5005186;28;20533;-70
2022/10/01 07:51:20;;;;;;;10.10;6.93;;;11.40;99.90;;;;;;4990318;28;20426;-71
2022/10/01 07:53:49;;;;;;;7.57;5.67;;;11.40;99.90;;;;;;4990770;28;20898;-70
2022/10/01 07:56:18;;;;;;;9.07;7.10;;;11.50;99.90;;;;;;4985843;28;20456;-70
2022/10/01 07:58:47;;;;;;;9.90;7.43;;;11.60;99.90;;;;;;4990451;28;20724;-71
2022/10/01 08:01:16;;;;;;;7.97;7.03;;;11.70;99.90;;;;;;4988045;28;20556;-71
2022/10/01 08:03:47;;;;;;;9.03;7.77;;;11.80;99.90;;;;;;4988669;28;21112;-71
2022/10/01 08:06:16;;;;;;;10.10;7.07;;;11.80;99.90;;;;;;4990036;28;20885;-72
2022/10/01 08:08:52;;;;;;;16.03;7.87;;;11.90;99.90;;;;;;4973287;28;20433;-71
2022/10/01 08:11:20;;;;;;;12.70;6.90;;;11.90;99.90;;;;;;4980903;28;20469;-72
2022/10/01 08:13:49;;;;;;;8.50;7.30;;;12.00;99.90;;;;;;4988999;28;20492;-71
2022/10/01 08:16:17;;;;;;;9.80;6.23;;;12.10;99.90;;;;;;4987487;28;20420;-71
2022/10/01 08:18:46;;;;;;;11.10;8.70;;;12.20;99.90;;;;;;4983255;28;20434;-70
2022/10/01 08:21:14;;;;;;;7.83;7.13;;;12.30;99.90;;;;;;4989390;28;20430;-70
2022/10/01 08:23:43;;;;;;;8.03;7.20;;;12.40;99.90;;;;;;4990159;28;20537;-70
2022/10/01 08:26:13;;;;;;;13.63;5.90;;;12.40;99.90;;;;;;4990283;28;20452;-73
2022/10/01 08:28:42;;;;;;;9.00;6.37;;;12.50;99.90;;;;;;4990032;28;20444;-70
2022/10/01 08:31:10;;;;;;;11.67;7.63;;;12.40;99.90;;;;;;4978566;28;20462;-70
2022/10/01 08:33:40;;;;;;;8.00;7.20;;;12.40;99.90;;;;;;4994363;28;20491;-72
2022/10/01 08:36:08;;;;;;;7.40;5.40;;;12.50;99.90;;;;;;4992152;28;20960;-71
2022/10/01 08:38:39;;;;;;;9.57;5.80;;;12.50;99.90;;;;;;4985971;28;20443;-72
2022/10/01 08:41:16;;;;;;;6.87;5.90;;;12.50;99.90;;;;;;4986035;28;20441;-70
2022/10/01 08:43:53;;;;;;;10.20;7.63;;;12.40;99.90;;;;;;4993433;28;20489;-70
2022/10/01 08:46:24;;;;;;;11.40;6.83;;;12.40;99.90;;;;;;4992545;28;20519;-69
2022/10/01 08:49:01;;;;;;;8.40;7.17;;;12.40;99.90;;;;;;4992580;28;20487;-71
2022/10/01 08:51:38;;;;;;;8.23;6.70;;;12.40;99.90;;;;;;4989247;28;21152;-72
2022/10/01 08:54:20;;;;;;;8.07;6.13;;;12.50;99.90;;;;;;4992296;28;20880;-71
2022/10/01 08:56:49;;;;;;;8.00;6.03;;;12.70;99.90;;;;;;4995022;28;20439;-70
2022/10/01 08:59:32;;;;;;;9.27;6.43;;;13.00;99.90;;;;;;4992800;28;20548;-71
2022/10/01 09:02:01;;;;;;;6.37;5.50;;;13.10;99.90;;;;;;4981535;28;20430;-70
2022/10/01 09:04:30;;;;;;;6.47;5.40;;;13.10;99.90;;;;;;4987142;28;20472;-70
2022/10/01 09:07:07;;;;;;;10.73;7.90;;;13.30;95.20;;;;;;4989114;28;20423;-69
2022/10/01 09:09:45;;;;;;;6.53;5.20;;;13.30;92.40;;;;;;4981108;28;20494;-71
2022/10/01 09:12:25;;;;;;;9.00;4.90;;;13.30;92.00;;;;;;4977617;28;20424;-71
2022/10/01 09:15:14;;;;;;;9.20;6.00;;;13.40;80.70;;;;;;4977403;28;20544;-71
2022/10/01 09:17:57;;;;;;;5.17;4.67;;;13.50;72.30;;;;;;4993075;28;20419;-69
2022/10/01 09:20:27;;;;;;;8.57;6.10;;;13.60;65.70;;;;;;4987667;28;20414;-70
2022/10/01 09:23:07;;;;;;;6.63;6.03;;;13.80;59.70;;;;;;4992575;28;20468;-72
2022/10/01 09:25:38;;;;;;;5.80;4.80;;;13.90;53.30;;;;;;4994209;28;20863;-70
2022/10/01 09:28:14;;;;;;;5.67;4.13;;;14.00;52.00;;;;;;4992962;28;20415;-71
2022/10/01 09:30:53;;;;;;;6.87;4.70;;;14.00;76.40;;;;;;4993151;28;20404;-70
2022/10/01 09:33:25;;;;;;;5.33;4.53;;;13.90;83.20;;;;;;4993407;28;20443;-69
2022/10/01 09:36:00;;;;;;;6.10;4.20;;;14.00;81.90;;;;;;4979775;28;20424;-69
2022/10/01 09:38:35;;;;;;;7.33;5.63;;;14.00;92.70;;;;;;4991971;28;20408;-71
2022/10/01 09:41:03;;;;;;;5.80;4.50;;;14.10;67.50;;;;;;4985547;28;20497;-70
2022/10/01 09:43:34;;;;;;;6.53;5.13;;;14.00;99.90;;;;;;4988726;28;20432;-71
2022/10/01 09:46:12;;;;;;;7.90;5.37;;;14.20;99.90;;;;;;4993878;28;20421;-70
2022/10/01 09:48:47;;;;;;;5.77;5.00;;;14.20;99.90;;;;;;4992246;28;20912;-70
2022/10/01 09:51:21;;;;;;;7.30;4.80;;;14.10;99.90;;;;;;4989014;28;20434;-70
2022/10/01 09:54:00;;;;;;;7.30;4.00;;;14.20;99.90;;;;;;4990805;28;20408;-70
2022/10/01 09:56:33;;;;;;;6.10;4.60;;;14.00;99.90;;;;;;4994574;28;20443;-75
2022/10/01 09:59:08;;;;;;;9.53;6.10;;;13.80;36.40;;;;;;4993091;28;20408;-71
2022/10/01 10:01:44;;;;;;;6.40;3.93;;;13.60;36.00;;;;;;4995923;28;20433;-72
2022/10/01 10:04:19;;;;;;;3.70;2.60;;;13.50;49.20;;;;;;4989380;28;20792;-72
2022/10/01 10:06:48;;;;;;;4.17;3.77;;;13.40;61.70;;;;;;4976552;28;20465;-71
2022/10/01 10:09:19;;;;;;;3.43;2.90;;;13.20;99.90;;;;;;4983244;28;20416;-70
2022/10/01 10:11:49;;;;;;;3.70;3.20;;;13.10;99.90;;;;;;4992299;28;20782;-69
2022/10/01 10:14:29;;;;;;;5.07;3.43;;;13.00;99.90;;;;;;4990968;28;20430;-68
2022/10/01 10:17:05;;;;;;;3.87;3.10;;;13.00;99.90;;;;;;4989936;28;20443;-72
2022/10/01 10:19:34;;;;;;;4.40;3.27;;;12.90;99.90;;;;;;4992687;28;20437;-70
2022/10/01 10:22:11;;;;;;;4.60;3.40;;;12.80;99.90;;;;;;4990565;28;20401;-70
2022/10/01 10:24:40;;;;;;;3.43;2.90;;;12.90;99.90;;;;;;4988045;28;20456;-69
2022/10/01 10:27:25;;;;;;;4.50;3.30;;;12.80;99.90;;;;;;4985467;28;20798;-69
2022/10/01 10:30:07;;;;;;;4.67;3.60;;;12.80;99.90;;;;;;4988718;28;20462;-69
2022/10/01 10:32:37;;;;;;;4.00;3.30;;;12.70;99.90;;;;;;4989170;28;20408;-68
2022/10/01 10:35:12;;;;;;;4.70;4.00;;;12.60;1.00;;;;;;4987791;28;20798;-68
2022/10/01 10:37:47;;;;;;;3.80;3.50;;;12.50;1.00;;;;;;4990082;28;20475;-69
2022/10/01 10:40:20;;;;;;;4.13;3.73;;;12.30;1.00;;;;;;4986439;28;20448;-69
2022/10/01 10:42:55;;;;;;;5.67;4.33;;;12.20;14.60;;;;;;4988757;28;20424;-70
2022/10/01 10:45:32;;;;;;;7.80;4.50;;;12.00;99.90;;;;;;4990590;28;20456;-69
2022/10/01 10:48:05;;;;;;;8.80;6.10;;;11.90;99.90;;;;;;4990845;28;20436;-69
2022/10/01 10:50:37;;;;;;;11.93;5.07;;;11.90;99.90;;;;;;4989902;28;20420;-68
2022/10/01 10:53:21;;;;;;;4.97;4.50;;;11.90;99.90;;;;;;4986151;28;20419;-69
2022/10/01 10:55:59;;;;;;;6.43;5.37;;;11.80;99.90;;;;;;4986071;28;20507;-68
2022/10/01 10:58:30;;;;;;;6.47;4.87;;;11.90;99.90;;;;;;4991678;28;20416;-67
2022/10/01 11:01:02;;;;;;;6.10;5.27;;;12.00;99.90;;;;;;4981629;28;20465;-69
2022/10/01 11:03:33;;;;;;;7.10;4.30;;;11.90;99.90;;;;;;4985594;28;20933;-69
2022/10/01 11:06:10;;;;;;;10.23;4.10;;;11.90;1.00;;;;;;4983069;28;20609;-68
2022/10/01 11:08:39;;;;;;;5.23;3.67;;;11.70;95.00;;;;;;4990826;28;20430;-68
2022/10/01 11:11:18;;;;;;;6.60;4.77;;;11.70;1.00;;;;;;4991007;28;20454;-69
2022/10/01 11:14:02;;;;;;;6.00;5.40;;;11.70;99.90;;;;;;4990757;28;20435;-69
2022/10/01 11:16:46;;;;;;;7.30;5.57;;;11.70;99.90;;;;;;4988816;28;20419;-67
2022/10/01 11:19:32;;;;;;;28.07;6.40;;;11.80;99.90;;;;;;4989042;28;20441;-70
2022/10/01 11:22:16;;;;;;;7.67;5.67;;;11.90;99.90;;;;;;4983484;28;20467;-70
2022/10/01 11:24:59;;;;;;;6.90;6.00;;;11.90;99.90;;;;;;4990638;28;20504;-69
2022/10/01 11:27:38;;;;;;;6.80;5.93;;;11.80;99.90;;;;;;4991081;28;20412;-69
2022/10/01 11:30:13;;;;;;;9.70;6.13;;;11.80;99.90;;;;;;4990847;28;20933;-69
2022/10/01 11:32:49;;;;;;;11.73;5.13;;;11.80;99.90;;;;;;4991052;28;21022;-69
2022/10/01 11:35:33;;;;;;;12.13;9.30;;;11.80;99.90;;;;;;4975786;28;20427;-71
2022/10/01 11:38:27;;;;;;;6.83;4.60;;;11.90;99.90;;;;;;4985495;28;20425;-70
2022/10/01 11:41:01;;;;;;;6.63;5.47;;;12.00;99.90;;;;;;4986827;28;20942;-69
2022/10/01 11:43:36;;;;;;;5.67;5.10;;;12.00;99.90;;;;;;4983871;28;20492;-69
2022/10/01 11:46:11;;;;;;;8.07;6.10;;;12.00;99.90;;;;;;4977330;28;20898;-70
2022/10/01 11:48:44;;;;;;;6.03;4.70;;;12.00;99.90;;;;;;4990919;28;20933;-70
2022/10/01 11:51:19;;;;;;;5.13;4.73;;;12.00;99.90;;;;;;4983700;28;20434;-69
2022/10/01 11:53:52;;;;;;;6.70;6.00;;;11.90;99.90;;;;;;4983953;28;20626;-70
2022/10/01 11:59:20;;;;;;;5.13;4.63;;;11.80;99.90;;;;;;4982577;28;20917;-70
2022/10/01 12:01:55;;;;;;;10.50;4.90;;;11.70;99.90;;;;;;5007087;28;20470;-70
2022/10/01 12:04:31;;;;;;;6.93;5.77;;;11.70;99.90;;;;;;4994960;28;20930;-68
2022/10/01 12:07:07;;;;;;;6.77;4.20;;;11.70;99.90;;;;;;4994601;28;20925;-68
2022/10/01 12:09:47;;;;;;;6.23;4.43;;;11.80;99.90;;;;;;4988518;28;20491;-70
2022/10/01 12:12:19;;;;;;;4.90;4.10;;;11.80;99.90;;;;;;4982114;28;20948;-68
2022/10/01 12:14:56;;;;;;;5.03;4.57;;;11.70;99.90;;;;;;4988725;28;20488;-70
2022/10/01 12:17:29;;;;;;;5.03;4.23;;;11.80;99.90;;;;;;4991372;28;21009;-70
2022/10/01 12:20:00;;;;;;;7.40;5.77;;;11.90;99.90;;;;;;4993616;28;20404;-69
2022/10/01 12:22:33;;;;;;;6.77;4.00;;;11.90;99.90;;;;;;4986163;28;20520;-70
2022/10/01 12:25:01;;;;;;;4.40;4.07;;;12.00;99.90;;;;;;4986805;28;20487;-69
2022/10/01 12:27:43;;;;;;;5.70;3.23;;;12.00;99.90;;;;;;4989118;28;20396;-68
2022/10/01 12:30:15;;;;;;;5.30;4.40;;;12.10;99.90;;;;;;4994877;28;21073;-69
2022/10/01 12:32:57;;;;;;;3.73;3.37;;;12.10;99.90;;;;;;4997552;28;20426;-70
2022/10/01 12:35:36;;;;;;;6.43;4.43;;;12.10;99.90;;;;;;4996054;28;20919;-69
2022/10/01 12:38:23;;;;;;;3.47;3.17;;;12.00;99.90;;;;;;4994793;28;20433;-69
2022/10/01 12:40:58;;;;;;;5.03;4.03;;;11.80;99.90;;;;;;4993246;28;20429;-69
2022/10/01 12:43:53;;;;;;;4.60;3.13;;;11.80;99.90;;;;;;4990756;28;20440;-68
2022/10/01 12:46:33;;;;;;;4.77;3.77;;;11.80;99.90;;;;;;4992075;28;20449;-69
2022/10/01 12:49:13;;;;;;;7.03;3.90;;;11.80;99.90;;;;;;4991713;28;20432;-68
2022/10/01 12:51:44;;;;;;;4.10;3.20;;;11.80;99.90;;;;;;4981507;28;20943;-69
2022/10/01 12:54:40;;;;;;;4.00;3.00;;;11.70;99.90;;;;;;4989183;28;20401;-68
2022/10/01 12:57:21;;;;;;;4.77;3.40;;;11.60;99.90;;;;;;4982830;28;20791;-68
2022/10/01 13:00:01;;;;;;;4.50;3.97;;;11.50;99.90;;;;;;4992217;28;20505;-71
2022/10/01 13:02:53;;;;;;;6.77;3.83;;;11.60;99.90;;;;;;4991598;28;20455;-70
2022/10/01 13:05:31;;;;;;;4.90;3.17;;;11.60;99.90;;;;;;4980688;28;20520;-69
2022/10/01 13:08:16;;;;;;;6.10;4.50;;;11.70;99.90;;;;;;4985340;28;20439;-70
2022/10/01 13:10:58;;;;;;;7.47;4.00;;;11.60;99.90;;;;;;4983310;28;20419;-69
2022/10/01 13:13:32;;;;;;;3.67;3.37;;;11.60;99.90;;;;;;4985575;28;20422;-70
2022/10/01 13:16:08;;;;;;;6.00;4.20;;;11.60;99.90;;;;;;4991833;28;20431;-70
2022/10/01 13:19:02;;;;;;;5.17;4.67;;;11.60;99.90;;;;;;4988713;28;20425;-71